DLH584 EDDF-HECA
Flight info
| Callsign | DLH584 |
|---|---|
| Flight time | 3h 33m |
| Altitude | 33000 |
| Route | CINDY8S CINDY Z74 LAMPU DCT NOMBO Y161 MAH DCT VAVOR DCT RADIZ DCT NEMEK DCT ELTIB/N0442F350 DCT PINDO DCT LUSES DCT ATV DCT KUMBI L612 BLT |
| Aircraft | A321/M-SDE2E3FGILORWXYZ/HB1 |
Departure
| Time | 2026-05-05 14:47 |
|---|---|
| Airport | Frankfurt Main Airport (EDDF) |
Arrival
| Time | 2026-05-05 18:20 |
|---|---|
| Airport | Cairo International Airport (HECA) |
| Time | Latitude | Longitude | Altitude | Speed | Heading |
|---|---|---|---|---|---|
| 2026-05-05 13:53 | 50.04750 | 8.57127 | 379 ft | 0 kts | 120° |
| 2026-05-05 14:36 | 50.04760 | 8.57102 | 379 ft | 4 kts | 124° |
| 2026-05-05 14:37 | 50.04776 | 8.57069 | 379 ft | 4 kts | 137° |
| 2026-05-05 14:37 | 50.04796 | 8.57048 | 379 ft | 4 kts | 176° |
| 2026-05-05 14:37 | 50.04804 | 8.57046 | 379 ft | 4 kts | 205° |
| 2026-05-05 14:37 | 50.04785 | 8.57032 | 379 ft | 1 kts | 205° |
| 2026-05-05 14:40 | 50.04774 | 8.57024 | 379 ft | 5 kts | 205° |
| 2026-05-05 14:40 | 50.04723 | 8.56987 | 379 ft | 11 kts | 205° |
| 2026-05-05 14:41 | 50.04632 | 8.56922 | 379 ft | 17 kts | 205° |
| 2026-05-05 14:41 | 50.04515 | 8.56869 | 379 ft | 18 kts | 191° |
| 2026-05-05 14:41 | 50.04439 | 8.56794 | 379 ft | 13 kts | 251° |
| 2026-05-05 14:41 | 50.04403 | 8.56636 | 379 ft | 18 kts | 249° |
| 2026-05-05 14:42 | 50.04353 | 8.56428 | 379 ft | 23 kts | 249° |
| 2026-05-05 14:42 | 50.04295 | 8.56184 | 379 ft | 25 kts | 249° |
| 2026-05-05 14:42 | 50.04236 | 8.55933 | 379 ft | 24 kts | 250° |
| 2026-05-05 14:42 | 50.04177 | 8.55688 | 379 ft | 24 kts | 249° |
| 2026-05-05 14:43 | 50.04117 | 8.55444 | 379 ft | 24 kts | 249° |
| 2026-05-05 14:43 | 50.04061 | 8.55202 | 379 ft | 24 kts | 250° |
| 2026-05-05 14:43 | 50.04003 | 8.54965 | 379 ft | 23 kts | 250° |
| 2026-05-05 14:43 | 50.03947 | 8.54728 | 379 ft | 23 kts | 250° |
| 2026-05-05 14:44 | 50.03892 | 8.54497 | 379 ft | 21 kts | 249° |
| 2026-05-05 14:44 | 50.03828 | 8.54304 | 379 ft | 20 kts | 234° |
| 2026-05-05 14:44 | 50.03771 | 8.54108 | 379 ft | 20 kts | 250° |
| 2026-05-05 14:44 | 50.03724 | 8.53910 | 379 ft | 20 kts | 250° |
| 2026-05-05 14:45 | 50.03676 | 8.53710 | 379 ft | 20 kts | 249° |
| 2026-05-05 14:45 | 50.03620 | 8.53484 | 379 ft | 24 kts | 249° |
| 2026-05-05 14:45 | 50.03559 | 8.53240 | 379 ft | 24 kts | 249° |
| 2026-05-05 14:45 | 50.03500 | 8.52995 | 379 ft | 24 kts | 249° |
| 2026-05-05 14:46 | 50.03444 | 8.52774 | 379 ft | 21 kts | 248° |
| 2026-05-05 14:46 | 50.03371 | 8.52607 | 379 ft | 19 kts | 196° |
| 2026-05-05 14:46 | 50.03220 | 8.52599 | 379 ft | 35 kts | 179° |
| 2026-05-05 14:46 | 50.02790 | 8.52602 | 379 ft | 88 kts | 180° |
| 2026-05-05 14:47 | 50.02004 | 8.52608 | 379 ft | 136 kts | 181° |
| 2026-05-05 14:47 | 50.00909 | 8.52625 | 390 ft | 176 kts | 180° |
| 2026-05-05 14:47 | 49.99623 | 8.52619 | 764 ft | 188 kts | 182° |
| 2026-05-05 14:47 | 49.98337 | 8.52557 | 1546 ft | 186 kts | 184° |
| 2026-05-05 14:48 | 49.97031 | 8.52745 | 1982 ft | 200 kts | 163° |
| 2026-05-05 14:48 | 49.95866 | 8.53983 | 2459 ft | 206 kts | 133° |
| 2026-05-05 14:48 | 49.95150 | 8.55963 | 3028 ft | 215 kts | 116° |
| 2026-05-05 14:48 | 49.94575 | 8.58140 | 3602 ft | 224 kts | 113° |
| 2026-05-05 14:49 | 49.94150 | 8.60552 | 4136 ft | 239 kts | 101° |
| 2026-05-05 14:49 | 49.93977 | 8.63215 | 4545 ft | 257 kts | 95° |
| 2026-05-05 14:49 | 49.93856 | 8.66009 | 5182 ft | 266 kts | 96° |
| 2026-05-05 14:49 | 49.93391 | 8.68842 | 5823 ft | 273 kts | 118° |
| 2026-05-05 14:50 | 49.92178 | 8.71065 | 6539 ft | 274 kts | 142° |
| 2026-05-05 14:50 | 49.90642 | 8.72872 | 7414 ft | 275 kts | 144° |
| 2026-05-05 14:50 | 49.89178 | 8.74768 | 8196 ft | 279 kts | 137° |
| 2026-05-05 14:50 | 49.87930 | 8.77130 | 9001 ft | 283 kts | 125° |
| 2026-05-05 14:51 | 49.86924 | 8.79738 | 9793 ft | 286 kts | 121° |
| 2026-05-05 14:51 | 49.85922 | 8.82474 | 10410 ft | 296 kts | 121° |
| 2026-05-05 14:51 | 49.84878 | 8.85346 | 10565 ft | 323 kts | 121° |
| 2026-05-05 14:51 | 49.83725 | 8.88522 | 10879 ft | 343 kts | 121° |
| 2026-05-05 14:52 | 49.82550 | 8.91759 | 11443 ft | 353 kts | 121° |
| 2026-05-05 14:52 | 49.81345 | 8.95088 | 12137 ft | 359 kts | 121° |
| 2026-05-05 14:52 | 49.80113 | 8.98483 | 12871 ft | 363 kts | 121° |
| 2026-05-05 14:52 | 49.78856 | 9.01945 | 13616 ft | 367 kts | 121° |
| 2026-05-05 14:53 | 49.77613 | 9.05413 | 14347 ft | 371 kts | 120° |
| 2026-05-05 14:53 | 49.76523 | 9.09002 | 15078 ft | 375 kts | 115° |
| 2026-05-05 14:53 | 49.75653 | 9.12837 | 15803 ft | 380 kts | 109° |
| 2026-05-05 14:53 | 49.74714 | 9.16699 | 16402 ft | 382 kts | 122° |
| 2026-05-05 14:54 | 49.73014 | 9.19736 | 16886 ft | 383 kts | 144° |
| 2026-05-05 14:54 | 49.70719 | 9.21846 | 17544 ft | 383 kts | 150° |
| 2026-05-05 14:54 | 49.68744 | 9.24619 | 18275 ft | 387 kts | 129° |
| 2026-05-05 14:54 | 49.67260 | 9.28087 | 18958 ft | 390 kts | 124° |
| 2026-05-05 14:55 | 49.65775 | 9.31617 | 19447 ft | 393 kts | 128° |
| 2026-05-05 14:55 | 49.64162 | 9.35012 | 19927 ft | 396 kts | 133° |
| 2026-05-05 14:55 | 49.62101 | 9.37857 | 20336 ft | 397 kts | 146° |
| 2026-05-05 14:55 | 49.59790 | 9.40235 | 20849 ft | 399 kts | 149° |
| 2026-05-05 14:56 | 49.57436 | 9.42525 | 21336 ft | 401 kts | 149° |
| 2026-05-05 14:56 | 49.55093 | 9.44874 | 21827 ft | 404 kts | 148° |
| 2026-05-05 14:56 | 49.52758 | 9.47282 | 22291 ft | 407 kts | 148° |
| 2026-05-05 14:56 | 49.50396 | 9.49737 | 22732 ft | 409 kts | 148° |
| 2026-05-05 14:57 | 49.48032 | 9.52205 | 23152 ft | 412 kts | 148° |
| 2026-05-05 14:57 | 49.45654 | 9.54691 | 23558 ft | 415 kts | 148° |
| 2026-05-05 14:57 | 49.43257 | 9.57197 | 23954 ft | 418 kts | 148° |
| 2026-05-05 14:57 | 49.40906 | 9.59870 | 24345 ft | 420 kts | 146° |
| 2026-05-05 14:58 | 49.38503 | 9.62409 | 24693 ft | 422 kts | 148° |
| 2026-05-05 14:58 | 49.36046 | 9.64932 | 25058 ft | 425 kts | 148° |
| 2026-05-05 14:58 | 49.33613 | 9.67531 | 25420 ft | 428 kts | 143° |
| 2026-05-05 14:58 | 49.31417 | 9.70615 | 25845 ft | 430 kts | 138° |
| 2026-05-05 14:59 | 49.29298 | 9.73851 | 26164 ft | 432 kts | 137° |
| 2026-05-05 14:59 | 49.27173 | 9.77124 | 26451 ft | 435 kts | 137° |
| 2026-05-05 14:59 | 49.25027 | 9.80425 | 26743 ft | 437 kts | 138° |
| 2026-05-05 14:59 | 49.22892 | 9.83702 | 27030 ft | 438 kts | 138° |
| 2026-05-05 15:00 | 49.20722 | 9.87027 | 27313 ft | 440 kts | 138° |
| 2026-05-05 15:00 | 49.19292 | 9.89216 | 27493 ft | 441 kts | 138° |
| 2026-05-05 15:00 | 49.16381 | 9.93661 | 27847 ft | 443 kts | 138° |
| 2026-05-05 15:00 | 49.14198 | 9.96989 | 28102 ft | 444 kts | 138° |
| 2026-05-05 15:01 | 49.12005 | 10.00325 | 28346 ft | 446 kts | 138° |
| 2026-05-05 15:01 | 49.09806 | 10.03669 | 28557 ft | 448 kts | 138° |
| 2026-05-05 15:01 | 49.07585 | 10.07043 | 28776 ft | 449 kts | 139° |
| 2026-05-05 15:01 | 49.05355 | 10.10364 | 29006 ft | 450 kts | 140° |
| 2026-05-05 15:02 | 49.03063 | 10.13624 | 29256 ft | 450 kts | 140° |
| 2026-05-05 15:02 | 49.00765 | 10.16861 | 29528 ft | 450 kts | 141° |
| 2026-05-05 15:02 | 48.98474 | 10.20087 | 29802 ft | 449 kts | 141° |
| 2026-05-05 15:02 | 48.96210 | 10.23275 | 30078 ft | 448 kts | 141° |
| 2026-05-05 15:03 | 48.93894 | 10.26534 | 30343 ft | 447 kts | 141° |
| 2026-05-05 15:03 | 48.91611 | 10.29741 | 30607 ft | 446 kts | 141° |
| 2026-05-05 15:03 | 48.89347 | 10.32923 | 30871 ft | 446 kts | 141° |
| 2026-05-05 15:03 | 48.87069 | 10.36127 | 31134 ft | 445 kts | 141° |
| 2026-05-05 15:04 | 48.84797 | 10.39323 | 31392 ft | 444 kts | 141° |
| 2026-05-05 15:04 | 48.83293 | 10.41439 | 31561 ft | 444 kts | 140° |
| 2026-05-05 15:04 | 48.80426 | 10.45831 | 31943 ft | 443 kts | 137° |
| 2026-05-05 15:04 | 48.78993 | 10.48125 | 32115 ft | 443 kts | 137° |
| 2026-05-05 15:05 | 48.74776 | 10.54901 | 32620 ft | 440 kts | 137° |
| 2026-05-05 15:05 | 48.71959 | 10.59414 | 32780 ft | 441 kts | 137° |
| 2026-05-05 15:06 | 48.68454 | 10.65009 | 32808 ft | 439 kts | 137° |
| 2026-05-05 15:06 | 48.64260 | 10.71683 | 32809 ft | 438 kts | 138° |
| 2026-05-05 15:07 | 48.60048 | 10.78365 | 32809 ft | 438 kts | 138° |
| 2026-05-05 15:07 | 48.55855 | 10.85047 | 32810 ft | 439 kts | 137° |
| 2026-05-05 15:08 | 48.51667 | 10.91749 | 32812 ft | 439 kts | 137° |
| 2026-05-05 15:08 | 48.47458 | 10.98428 | 32813 ft | 439 kts | 138° |
| 2026-05-05 15:09 | 48.43205 | 11.05060 | 32814 ft | 440 kts | 138° |
| 2026-05-05 15:09 | 48.38955 | 11.11678 | 32813 ft | 441 kts | 138° |
| 2026-05-05 15:10 | 48.34716 | 11.18273 | 32812 ft | 441 kts | 138° |
| 2026-05-05 15:10 | 48.30425 | 11.24934 | 32812 ft | 441 kts | 138° |
| 2026-05-05 15:11 | 48.26170 | 11.31599 | 32804 ft | 444 kts | 134° |
| 2026-05-05 15:11 | 48.22874 | 11.39466 | 32807 ft | 450 kts | 124° |
| 2026-05-05 15:12 | 48.19780 | 11.47647 | 32798 ft | 451 kts | 123° |
| 2026-05-05 15:12 | 48.16669 | 11.55838 | 32793 ft | 451 kts | 124° |
| 2026-05-05 15:13 | 48.13550 | 11.64005 | 32787 ft | 451 kts | 124° |
| 2026-05-05 15:13 | 48.10422 | 11.72153 | 32782 ft | 451 kts | 124° |
| 2026-05-05 15:14 | 48.07288 | 11.80280 | 32779 ft | 451 kts | 124° |
| 2026-05-05 15:14 | 48.04139 | 11.88410 | 32765 ft | 451 kts | 124° |
| 2026-05-05 15:15 | 48.00985 | 11.96522 | 32762 ft | 451 kts | 124° |
| 2026-05-05 15:15 | 47.97826 | 12.04617 | 32762 ft | 451 kts | 124° |
| 2026-05-05 15:16 | 47.94529 | 12.12570 | 32761 ft | 448 kts | 130° |
| 2026-05-05 15:16 | 47.90396 | 12.19388 | 32758 ft | 441 kts | 142° |
| 2026-05-05 15:17 | 47.85701 | 12.25285 | 32757 ft | 441 kts | 144° |
| 2026-05-05 15:17 | 47.80989 | 12.31136 | 32757 ft | 441 kts | 144° |
| 2026-05-05 15:18 | 47.76271 | 12.37001 | 32774 ft | 445 kts | 144° |
| 2026-05-05 15:18 | 47.71521 | 12.42908 | 32774 ft | 445 kts | 144° |
| 2026-05-05 15:19 | 47.66774 | 12.48808 | 32773 ft | 446 kts | 144° |
| 2026-05-05 15:19 | 47.62023 | 12.54764 | 32772 ft | 447 kts | 142° |
| 2026-05-05 15:20 | 47.57482 | 12.61109 | 32773 ft | 450 kts | 140° |
| 2026-05-05 15:20 | 47.52970 | 12.67515 | 32774 ft | 450 kts | 140° |
| 2026-05-05 15:21 | 47.48473 | 12.73886 | 32778 ft | 451 kts | 140° |
| 2026-05-05 15:21 | 47.43909 | 12.80335 | 32785 ft | 452 kts | 140° |
| 2026-05-05 15:22 | 47.39392 | 12.86702 | 32794 ft | 452 kts | 140° |
| 2026-05-05 15:22 | 47.34832 | 12.93108 | 32805 ft | 453 kts | 140° |
| 2026-05-05 15:23 | 47.30236 | 12.99545 | 32817 ft | 453 kts | 140° |
| 2026-05-05 15:23 | 47.25684 | 13.05902 | 32826 ft | 454 kts | 140° |
| 2026-05-05 15:24 | 47.21092 | 13.12294 | 32837 ft | 455 kts | 140° |
| 2026-05-05 15:24 | 47.16487 | 13.18689 | 32849 ft | 455 kts | 140° |
| 2026-05-05 15:25 | 47.11880 | 13.25068 | 32860 ft | 456 kts | 140° |
| 2026-05-05 15:25 | 47.07255 | 13.31455 | 32870 ft | 456 kts | 140° |
| 2026-05-05 15:26 | 47.02630 | 13.37827 | 32879 ft | 456 kts | 140° |
| 2026-05-05 15:26 | 46.97969 | 13.44233 | 32892 ft | 457 kts | 140° |
| 2026-05-05 15:27 | 46.93353 | 13.50561 | 32902 ft | 458 kts | 140° |
| 2026-05-05 15:27 | 46.88699 | 13.56923 | 32912 ft | 458 kts | 140° |
| 2026-05-05 15:28 | 46.84031 | 13.63289 | 32919 ft | 459 kts | 140° |
| 2026-05-05 15:28 | 46.79369 | 13.69631 | 32927 ft | 460 kts | 140° |
| 2026-05-05 15:29 | 46.74674 | 13.76004 | 32935 ft | 461 kts | 140° |
| 2026-05-05 15:29 | 46.69971 | 13.82369 | 32941 ft | 461 kts | 140° |
| 2026-05-05 15:30 | 46.65262 | 13.88725 | 32947 ft | 461 kts | 140° |
| 2026-05-05 15:30 | 46.60555 | 13.95065 | 32967 ft | 462 kts | 140° |
| 2026-05-05 15:31 | 46.55824 | 14.01421 | 32971 ft | 463 kts | 140° |
| 2026-05-05 15:31 | 46.51080 | 14.07774 | 32973 ft | 463 kts | 140° |
| 2026-05-05 15:32 | 46.46345 | 14.14105 | 32976 ft | 463 kts | 140° |
| 2026-05-05 15:32 | 46.41591 | 14.20445 | 32982 ft | 464 kts | 140° |
| 2026-05-05 15:33 | 46.36847 | 14.26754 | 32993 ft | 463 kts | 140° |
| 2026-05-05 15:33 | 46.32087 | 14.33070 | 33005 ft | 463 kts | 140° |
| 2026-05-05 15:34 | 46.27331 | 14.39364 | 33014 ft | 464 kts | 140° |
| 2026-05-05 15:34 | 46.22574 | 14.45646 | 33021 ft | 464 kts | 141° |
| 2026-05-05 15:35 | 46.17802 | 14.51927 | 33022 ft | 463 kts | 141° |
| 2026-05-05 15:35 | 46.13070 | 14.58144 | 33021 ft | 462 kts | 141° |
| 2026-05-05 15:36 | 46.08312 | 14.64379 | 33018 ft | 462 kts | 141° |
| 2026-05-05 15:36 | 46.03529 | 14.70631 | 33013 ft | 462 kts | 141° |
| 2026-05-05 15:37 | 45.98799 | 14.76799 | 33008 ft | 462 kts | 141° |
| 2026-05-05 15:37 | 45.94012 | 14.83026 | 33001 ft | 464 kts | 141° |
| 2026-05-05 15:38 | 45.89202 | 14.89269 | 32997 ft | 463 kts | 141° |
| 2026-05-05 15:38 | 45.84442 | 14.95430 | 32998 ft | 463 kts | 141° |
| 2026-05-05 15:39 | 45.79664 | 15.01601 | 32995 ft | 463 kts | 141° |
| 2026-05-05 15:39 | 45.74881 | 15.07761 | 32992 ft | 462 kts | 141° |
| 2026-05-05 15:40 | 45.70111 | 15.13892 | 32990 ft | 461 kts | 141° |
| 2026-05-05 15:40 | 45.65326 | 15.20027 | 32991 ft | 461 kts | 141° |
| 2026-05-05 15:41 | 45.60555 | 15.26127 | 32991 ft | 460 kts | 141° |
| 2026-05-05 15:41 | 45.55784 | 15.32152 | 32992 ft | 460 kts | 142° |
| 2026-05-05 15:42 | 45.50917 | 15.38074 | 32994 ft | 459 kts | 142° |
| 2026-05-05 15:42 | 45.46020 | 15.44027 | 32992 ft | 460 kts | 142° |
| 2026-05-05 15:43 | 45.41166 | 15.49937 | 32993 ft | 460 kts | 142° |
| 2026-05-05 15:43 | 45.36295 | 15.55866 | 32992 ft | 460 kts | 142° |
| 2026-05-05 15:44 | 45.31435 | 15.61779 | 32993 ft | 461 kts | 142° |
| 2026-05-05 15:44 | 45.26588 | 15.67671 | 32993 ft | 461 kts | 142° |
| 2026-05-05 15:45 | 45.21708 | 15.73595 | 32993 ft | 462 kts | 142° |
| 2026-05-05 15:45 | 45.16822 | 15.79518 | 32991 ft | 463 kts | 142° |
| 2026-05-05 15:46 | 45.11903 | 15.85473 | 32993 ft | 465 kts | 142° |
| 2026-05-05 15:46 | 45.07779 | 15.90457 | 32994 ft | 466 kts | 142° |
| 2026-05-05 15:47 | 45.02843 | 15.96409 | 32995 ft | 467 kts | 142° |
| 2026-05-05 15:47 | 44.97918 | 16.02335 | 32996 ft | 467 kts | 142° |
| 2026-05-05 15:48 | 44.92967 | 16.08278 | 32999 ft | 468 kts | 142° |
| 2026-05-05 15:48 | 44.87957 | 16.14280 | 33013 ft | 470 kts | 142° |
| 2026-05-05 15:49 | 44.82995 | 16.20212 | 33015 ft | 472 kts | 142° |
| 2026-05-05 15:49 | 44.77985 | 16.26189 | 33015 ft | 473 kts | 142° |
| 2026-05-05 15:50 | 44.72959 | 16.32172 | 33018 ft | 473 kts | 142° |
| 2026-05-05 15:50 | 44.67933 | 16.38141 | 33024 ft | 474 kts | 143° |
| 2026-05-05 15:51 | 44.62882 | 16.44123 | 33020 ft | 474 kts | 143° |
| 2026-05-05 15:51 | 44.57831 | 16.50092 | 33022 ft | 474 kts | 143° |
| 2026-05-05 15:52 | 44.52785 | 16.56041 | 33024 ft | 474 kts | 143° |
| 2026-05-05 15:52 | 44.47729 | 16.61987 | 33027 ft | 474 kts | 143° |
| 2026-05-05 15:53 | 44.42682 | 16.67910 | 33031 ft | 474 kts | 143° |
| 2026-05-05 15:53 | 44.37628 | 16.73827 | 33018 ft | 473 kts | 143° |
| 2026-05-05 15:54 | 44.32572 | 16.79730 | 33019 ft | 473 kts | 143° |
| 2026-05-05 15:54 | 44.27420 | 16.85360 | 33024 ft | 470 kts | 146° |
| 2026-05-05 15:55 | 44.22318 | 16.91084 | 33028 ft | 470 kts | 143° |
| 2026-05-05 15:55 | 44.17306 | 16.96943 | 33033 ft | 469 kts | 143° |
| 2026-05-05 15:56 | 44.12323 | 17.02768 | 33068 ft | 468 kts | 143° |
| 2026-05-05 15:56 | 44.07335 | 17.08591 | 33085 ft | 467 kts | 143° |
| 2026-05-05 15:57 | 44.02347 | 17.14398 | 33094 ft | 466 kts | 143° |
| 2026-05-05 15:57 | 43.97379 | 17.20169 | 33101 ft | 468 kts | 143° |
| 2026-05-05 15:58 | 43.92382 | 17.25957 | 33106 ft | 468 kts | 143° |
| 2026-05-05 15:58 | 43.87389 | 17.31725 | 33108 ft | 466 kts | 143° |
| 2026-05-05 15:59 | 43.82395 | 17.37479 | 33099 ft | 465 kts | 143° |
| 2026-05-05 15:59 | 43.77423 | 17.43196 | 33099 ft | 465 kts | 143° |
| 2026-05-05 16:00 | 43.72449 | 17.48901 | 33100 ft | 464 kts | 143° |
| 2026-05-05 16:00 | 43.67480 | 17.54590 | 33100 ft | 463 kts | 143° |
| 2026-05-05 16:01 | 43.62516 | 17.60259 | 33101 ft | 463 kts | 143° |
| 2026-05-05 16:01 | 43.57544 | 17.65925 | 33101 ft | 463 kts | 143° |
| 2026-05-05 16:02 | 43.52574 | 17.71574 | 33103 ft | 463 kts | 143° |
| 2026-05-05 16:02 | 43.47667 | 17.77140 | 33106 ft | 463 kts | 143° |
| 2026-05-05 16:03 | 43.42692 | 17.82771 | 33108 ft | 464 kts | 143° |
| 2026-05-05 16:03 | 43.37706 | 17.88403 | 33108 ft | 465 kts | 143° |
| 2026-05-05 16:04 | 43.32692 | 17.94052 | 33109 ft | 466 kts | 143° |
| 2026-05-05 16:04 | 43.27664 | 17.99705 | 33109 ft | 467 kts | 143° |
| 2026-05-05 16:05 | 43.22629 | 18.05352 | 33108 ft | 468 kts | 144° |
| 2026-05-05 16:05 | 43.17577 | 18.11008 | 33107 ft | 471 kts | 144° |
| 2026-05-05 16:06 | 43.12491 | 18.16687 | 33104 ft | 472 kts | 144° |
| 2026-05-05 16:06 | 43.07447 | 18.22308 | 33103 ft | 474 kts | 144° |
| 2026-05-05 16:07 | 43.02319 | 18.28009 | 33103 ft | 475 kts | 144° |
| 2026-05-05 16:07 | 42.97179 | 18.33710 | 33105 ft | 477 kts | 144° |
| 2026-05-05 16:08 | 42.92023 | 18.39417 | 33106 ft | 478 kts | 144° |
| 2026-05-05 16:08 | 42.86849 | 18.45130 | 33107 ft | 479 kts | 144° |
| 2026-05-05 16:09 | 42.81654 | 18.50854 | 33107 ft | 480 kts | 144° |
| 2026-05-05 16:09 | 42.76447 | 18.56579 | 33108 ft | 481 kts | 144° |
| 2026-05-05 16:10 | 42.71243 | 18.62288 | 33108 ft | 482 kts | 144° |
| 2026-05-05 16:10 | 42.66011 | 18.68013 | 33109 ft | 482 kts | 144° |
| 2026-05-05 16:11 | 42.60781 | 18.73725 | 33107 ft | 483 kts | 145° |
| 2026-05-05 16:12 | 42.50297 | 18.85135 | 33105 ft | 484 kts | 145° |
| 2026-05-05 16:13 | 42.37144 | 18.99379 | 33098 ft | 484 kts | 145° |
| 2026-05-05 16:13 | 42.31847 | 19.05092 | 33092 ft | 486 kts | 145° |
| 2026-05-05 16:14 | 42.21290 | 19.16442 | 33087 ft | 486 kts | 145° |
| 2026-05-05 16:15 | 42.10655 | 19.27825 | 33084 ft | 488 kts | 145° |
| 2026-05-05 16:16 | 42.00004 | 19.39177 | 33083 ft | 489 kts | 145° |
| 2026-05-05 16:17 | 41.91954 | 19.47723 | 33085 ft | 493 kts | 145° |
| 2026-05-05 16:18 | 41.83902 | 19.56242 | 33089 ft | 493 kts | 146° |
| 2026-05-05 16:19 | 41.75816 | 19.64769 | 33094 ft | 493 kts | 146° |
| 2026-05-05 16:19 | 41.67700 | 19.73299 | 33099 ft | 493 kts | 146° |
| 2026-05-05 16:20 | 41.56933 | 19.84572 | 33103 ft | 493 kts | 146° |
| 2026-05-05 16:22 | 41.43385 | 19.98687 | 33106 ft | 494 kts | 146° |
| 2026-05-05 16:23 | 41.32477 | 20.09994 | 33104 ft | 498 kts | 145° |
| 2026-05-05 16:23 | 41.24225 | 20.18517 | 33100 ft | 500 kts | 145° |
| 2026-05-05 16:24 | 41.18718 | 20.24188 | 33096 ft | 502 kts | 145° |
| 2026-05-05 16:25 | 41.10428 | 20.32704 | 33092 ft | 504 kts | 145° |
| 2026-05-05 16:25 | 41.02104 | 20.41226 | 33092 ft | 505 kts | 145° |
| 2026-05-05 16:26 | 40.91895 | 20.51639 | 33089 ft | 507 kts | 145° |
| 2026-05-05 16:27 | 40.86294 | 20.57335 | 33089 ft | 508 kts | 145° |
| 2026-05-05 16:27 | 40.80698 | 20.63015 | 33089 ft | 509 kts | 145° |
| 2026-05-05 16:28 | 40.75072 | 20.68708 | 33090 ft | 509 kts | 145° |
| 2026-05-05 16:28 | 40.69474 | 20.74365 | 33092 ft | 509 kts | 145° |
| 2026-05-05 16:29 | 40.63833 | 20.80050 | 33094 ft | 510 kts | 144° |
| 2026-05-05 16:29 | 40.58184 | 20.85731 | 33080 ft | 511 kts | 144° |
| 2026-05-05 16:30 | 40.52546 | 20.91391 | 33075 ft | 511 kts | 144° |
| 2026-05-05 16:30 | 40.46930 | 20.97152 | 33073 ft | 513 kts | 140° |
| 2026-05-05 16:31 | 40.41729 | 21.03578 | 33074 ft | 514 kts | 137° |
| 2026-05-05 16:31 | 40.36603 | 21.10108 | 33073 ft | 515 kts | 136° |
| 2026-05-05 16:32 | 40.31465 | 21.16656 | 33072 ft | 515 kts | 136° |
| 2026-05-05 16:32 | 40.26379 | 21.23241 | 33065 ft | 515 kts | 136° |
| 2026-05-05 16:33 | 40.21299 | 21.29858 | 33069 ft | 515 kts | 135° |
| 2026-05-05 16:33 | 40.16184 | 21.36544 | 33067 ft | 516 kts | 135° |
| 2026-05-05 16:34 | 40.11131 | 21.43116 | 33064 ft | 516 kts | 135° |
| 2026-05-05 16:34 | 40.06009 | 21.49762 | 33063 ft | 516 kts | 135° |
| 2026-05-05 16:35 | 40.00906 | 21.56366 | 33062 ft | 516 kts | 135° |
| 2026-05-05 16:35 | 39.95789 | 21.62970 | 33061 ft | 517 kts | 135° |
| 2026-05-05 16:36 | 39.90708 | 21.69505 | 33061 ft | 517 kts | 135° |
| 2026-05-05 16:36 | 39.85550 | 21.76124 | 33060 ft | 517 kts | 135° |
| 2026-05-05 16:37 | 39.80415 | 21.82698 | 33059 ft | 518 kts | 135° |
| 2026-05-05 16:37 | 39.75283 | 21.89253 | 33049 ft | 517 kts | 135° |
| 2026-05-05 16:38 | 39.70146 | 21.95798 | 33045 ft | 516 kts | 135° |
| 2026-05-05 16:38 | 39.65019 | 22.02314 | 33031 ft | 516 kts | 135° |
| 2026-05-05 16:39 | 39.59878 | 22.08833 | 33026 ft | 516 kts | 135° |
| 2026-05-05 16:39 | 39.54747 | 22.15328 | 33021 ft | 516 kts | 135° |
| 2026-05-05 16:40 | 39.49609 | 22.21816 | 33017 ft | 516 kts | 135° |
| 2026-05-05 16:40 | 39.44468 | 22.28292 | 33013 ft | 515 kts | 135° |
| 2026-05-05 16:41 | 39.39324 | 22.34761 | 33008 ft | 515 kts | 135° |
| 2026-05-05 16:41 | 39.34200 | 22.41189 | 33004 ft | 514 kts | 135° |
| 2026-05-05 16:42 | 39.29064 | 22.47618 | 33001 ft | 513 kts | 135° |
| 2026-05-05 16:42 | 39.23938 | 22.54019 | 32998 ft | 513 kts | 135° |
| 2026-05-05 16:43 | 39.18807 | 22.60414 | 32997 ft | 512 kts | 135° |
| 2026-05-05 16:43 | 39.13682 | 22.66787 | 32995 ft | 512 kts | 135° |
| 2026-05-05 16:44 | 39.08560 | 22.73142 | 32995 ft | 511 kts | 135° |
| 2026-05-05 16:44 | 39.03432 | 22.79494 | 32996 ft | 511 kts | 135° |
| 2026-05-05 16:45 | 38.98315 | 22.85817 | 33000 ft | 511 kts | 135° |
| 2026-05-05 16:45 | 38.93173 | 22.92158 | 33005 ft | 511 kts | 135° |
| 2026-05-05 16:46 | 38.88040 | 22.98473 | 33009 ft | 511 kts | 135° |
| 2026-05-05 16:46 | 38.82910 | 23.04771 | 33014 ft | 511 kts | 135° |
| 2026-05-05 16:47 | 38.77759 | 23.11082 | 33017 ft | 511 kts | 135° |
| 2026-05-05 16:47 | 38.72607 | 23.17381 | 33021 ft | 511 kts | 135° |
| 2026-05-05 16:48 | 38.67459 | 23.23660 | 33025 ft | 511 kts | 135° |
| 2026-05-05 16:48 | 38.62315 | 23.29924 | 33028 ft | 511 kts | 135° |
| 2026-05-05 16:49 | 38.57156 | 23.36192 | 33032 ft | 511 kts | 135° |
| 2026-05-05 16:49 | 38.51999 | 23.42444 | 33035 ft | 511 kts | 135° |
| 2026-05-05 16:50 | 38.46829 | 23.48700 | 33038 ft | 512 kts | 135° |
| 2026-05-05 16:50 | 38.41645 | 23.54958 | 33046 ft | 513 kts | 136° |
| 2026-05-05 16:51 | 38.36466 | 23.61198 | 33055 ft | 513 kts | 136° |
| 2026-05-05 16:51 | 38.31272 | 23.67441 | 33056 ft | 514 kts | 135° |
| 2026-05-05 16:52 | 38.26072 | 23.73682 | 33058 ft | 513 kts | 135° |
| 2026-05-05 16:52 | 38.20838 | 23.79949 | 33060 ft | 513 kts | 136° |
| 2026-05-05 16:53 | 38.15665 | 23.86130 | 33064 ft | 513 kts | 136° |
| 2026-05-05 16:53 | 38.10427 | 23.92377 | 33070 ft | 514 kts | 136° |
| 2026-05-05 16:54 | 38.05217 | 23.98576 | 33077 ft | 514 kts | 136° |
| 2026-05-05 16:54 | 37.99996 | 24.04776 | 33079 ft | 514 kts | 136° |
| 2026-05-05 16:55 | 37.94779 | 24.10958 | 33079 ft | 514 kts | 136° |
| 2026-05-05 16:55 | 37.89544 | 24.17149 | 33081 ft | 514 kts | 136° |
| 2026-05-05 16:56 | 37.84319 | 24.23316 | 33084 ft | 514 kts | 136° |
| 2026-05-05 16:56 | 37.81732 | 24.26365 | 33273 ft | 514 kts | 136° |
| 2026-05-05 16:56 | 37.79079 | 24.29490 | 33501 ft | 515 kts | 136° |
| 2026-05-05 16:57 | 37.76490 | 24.32536 | 33738 ft | 514 kts | 136° |
| 2026-05-05 16:57 | 37.73844 | 24.35646 | 33980 ft | 514 kts | 136° |
| 2026-05-05 16:57 | 37.71250 | 24.38690 | 34222 ft | 514 kts | 136° |
| 2026-05-05 16:57 | 37.68637 | 24.41751 | 34465 ft | 513 kts | 136° |
| 2026-05-05 16:58 | 37.66019 | 24.44817 | 34702 ft | 512 kts | 136° |
| 2026-05-05 16:58 | 37.63389 | 24.47895 | 34975 ft | 511 kts | 136° |
| 2026-05-05 16:58 | 37.58162 | 24.54000 | 35073 ft | 510 kts | 137° |
| 2026-05-05 16:59 | 37.52994 | 24.60028 | 35080 ft | 509 kts | 137° |
| 2026-05-05 16:59 | 37.47800 | 24.66070 | 35080 ft | 509 kts | 137° |
| 2026-05-05 17:00 | 37.42602 | 24.72107 | 35081 ft | 508 kts | 137° |
| 2026-05-05 17:00 | 37.37418 | 24.78115 | 35079 ft | 508 kts | 137° |
| 2026-05-05 17:01 | 37.33059 | 24.83161 | 35079 ft | 508 kts | 137° |
| 2026-05-05 17:01 | 37.27850 | 24.89175 | 35077 ft | 508 kts | 137° |
| 2026-05-05 17:02 | 37.22656 | 24.95161 | 35074 ft | 508 kts | 137° |
| 2026-05-05 17:02 | 37.17443 | 25.01158 | 35065 ft | 508 kts | 137° |
| 2026-05-05 17:03 | 37.12265 | 25.07102 | 35058 ft | 508 kts | 137° |
| 2026-05-05 17:03 | 37.07045 | 25.13083 | 35054 ft | 508 kts | 137° |
| 2026-05-05 17:04 | 37.01829 | 25.19049 | 35053 ft | 508 kts | 137° |
| 2026-05-05 17:04 | 36.96606 | 25.25010 | 35053 ft | 508 kts | 137° |
| 2026-05-05 17:05 | 36.91345 | 25.31004 | 35053 ft | 508 kts | 137° |
| 2026-05-05 17:05 | 36.86121 | 25.36943 | 35054 ft | 508 kts | 137° |
| 2026-05-05 17:06 | 36.80922 | 25.42842 | 35059 ft | 509 kts | 137° |
| 2026-05-05 17:06 | 36.75677 | 25.48782 | 35062 ft | 509 kts | 137° |
| 2026-05-05 17:07 | 36.70385 | 25.54765 | 35066 ft | 509 kts | 137° |
| 2026-05-05 17:07 | 36.65132 | 25.60690 | 35070 ft | 509 kts | 137° |
| 2026-05-05 17:08 | 36.59883 | 25.66601 | 35073 ft | 510 kts | 138° |
| 2026-05-05 17:08 | 36.54616 | 25.72521 | 35074 ft | 510 kts | 138° |
| 2026-05-05 17:09 | 36.49343 | 25.78435 | 35074 ft | 510 kts | 138° |
| 2026-05-05 17:09 | 36.44062 | 25.84348 | 35074 ft | 510 kts | 138° |
| 2026-05-05 17:10 | 36.38779 | 25.90251 | 35073 ft | 510 kts | 138° |
| 2026-05-05 17:10 | 36.33497 | 25.96142 | 35074 ft | 512 kts | 138° |
| 2026-05-05 17:11 | 36.28206 | 26.02032 | 35072 ft | 511 kts | 138° |
| 2026-05-05 17:11 | 36.22913 | 26.07913 | 35070 ft | 512 kts | 138° |
| 2026-05-05 17:12 | 36.17609 | 26.13794 | 35067 ft | 511 kts | 138° |
| 2026-05-05 17:12 | 36.12335 | 26.19632 | 35065 ft | 511 kts | 138° |
| 2026-05-05 17:13 | 36.06993 | 26.25533 | 35063 ft | 511 kts | 138° |
| 2026-05-05 17:13 | 36.01737 | 26.31328 | 35062 ft | 510 kts | 138° |
| 2026-05-05 17:14 | 35.96435 | 26.37166 | 35060 ft | 511 kts | 138° |
| 2026-05-05 17:14 | 35.91129 | 26.42993 | 35059 ft | 511 kts | 138° |
| 2026-05-05 17:15 | 35.85825 | 26.48809 | 35058 ft | 510 kts | 139° |
| 2026-05-05 17:15 | 35.80518 | 26.54617 | 35057 ft | 509 kts | 139° |
| 2026-05-05 17:16 | 35.75214 | 26.60410 | 35056 ft | 510 kts | 139° |
| 2026-05-05 17:16 | 35.69923 | 26.66180 | 35055 ft | 508 kts | 139° |
| 2026-05-05 17:17 | 35.64631 | 26.71940 | 35054 ft | 509 kts | 139° |
| 2026-05-05 17:17 | 35.59331 | 26.77697 | 35054 ft | 507 kts | 139° |
| 2026-05-05 17:18 | 35.54044 | 26.83430 | 35053 ft | 507 kts | 139° |
| 2026-05-05 17:18 | 35.48747 | 26.89162 | 35052 ft | 506 kts | 139° |
| 2026-05-05 17:19 | 35.43466 | 26.94869 | 35052 ft | 506 kts | 139° |
| 2026-05-05 17:19 | 35.38167 | 27.00583 | 35052 ft | 506 kts | 139° |
| 2026-05-05 17:20 | 35.32844 | 27.06311 | 35052 ft | 505 kts | 139° |
| 2026-05-05 17:20 | 35.27530 | 27.12023 | 35052 ft | 505 kts | 140° |
| 2026-05-05 17:21 | 35.22241 | 27.17694 | 35051 ft | 505 kts | 140° |
| 2026-05-05 17:22 | 35.14339 | 27.26152 | 35050 ft | 505 kts | 140° |
| 2026-05-05 17:22 | 35.09045 | 27.31803 | 35050 ft | 505 kts | 140° |
| 2026-05-05 17:23 | 35.03747 | 27.37450 | 35049 ft | 505 kts | 140° |
| 2026-05-05 17:23 | 34.98449 | 27.43088 | 35049 ft | 505 kts | 140° |
| 2026-05-05 17:24 | 34.93141 | 27.48723 | 35049 ft | 505 kts | 140° |
| 2026-05-05 17:24 | 34.87840 | 27.54344 | 35048 ft | 505 kts | 140° |
| 2026-05-05 17:25 | 34.82538 | 27.59955 | 35048 ft | 505 kts | 140° |
| 2026-05-05 17:25 | 34.77240 | 27.65551 | 35048 ft | 506 kts | 140° |
| 2026-05-05 17:26 | 34.71917 | 27.71164 | 35048 ft | 506 kts | 141° |
| 2026-05-05 17:26 | 34.66593 | 27.76768 | 35049 ft | 506 kts | 141° |
| 2026-05-05 17:27 | 34.61255 | 27.82376 | 35049 ft | 507 kts | 141° |
| 2026-05-05 17:27 | 34.55932 | 27.87961 | 35050 ft | 506 kts | 141° |
| 2026-05-05 17:28 | 34.50556 | 27.93588 | 35051 ft | 507 kts | 141° |
| 2026-05-05 17:28 | 34.45248 | 27.99136 | 35051 ft | 507 kts | 141° |
| 2026-05-05 17:29 | 34.39896 | 28.04722 | 35053 ft | 507 kts | 141° |
| 2026-05-05 17:29 | 34.34546 | 28.10292 | 35053 ft | 507 kts | 141° |
| 2026-05-05 17:30 | 34.29190 | 28.15861 | 35054 ft | 507 kts | 141° |
| 2026-05-05 17:30 | 34.23847 | 28.21407 | 35056 ft | 507 kts | 141° |
| 2026-05-05 17:31 | 34.18480 | 28.26967 | 35057 ft | 507 kts | 141° |
| 2026-05-05 17:31 | 34.13130 | 28.32500 | 35059 ft | 507 kts | 141° |
| 2026-05-05 17:32 | 34.07760 | 28.38046 | 35060 ft | 507 kts | 141° |
| 2026-05-05 17:32 | 34.02399 | 28.43572 | 35062 ft | 507 kts | 141° |
| 2026-05-05 17:33 | 33.97076 | 28.49050 | 35064 ft | 507 kts | 142° |
| 2026-05-05 17:33 | 33.91710 | 28.54562 | 35066 ft | 506 kts | 142° |
| 2026-05-05 17:34 | 33.86346 | 28.60062 | 35068 ft | 506 kts | 142° |
| 2026-05-05 17:34 | 33.80989 | 28.65545 | 35070 ft | 506 kts | 142° |
| 2026-05-05 17:35 | 33.75631 | 28.71021 | 35072 ft | 505 kts | 142° |
| 2026-05-05 17:35 | 33.70288 | 28.76481 | 35074 ft | 505 kts | 142° |
| 2026-05-05 17:36 | 33.65062 | 28.82126 | 35086 ft | 505 kts | 140° |
| 2026-05-05 17:36 | 33.59921 | 28.87885 | 35085 ft | 505 kts | 140° |
| 2026-05-05 17:37 | 33.54791 | 28.93642 | 35086 ft | 505 kts | 140° |
| 2026-05-05 17:37 | 33.49667 | 28.99385 | 35087 ft | 504 kts | 140° |
| 2026-05-05 17:38 | 33.44552 | 29.05108 | 35088 ft | 504 kts | 140° |
| 2026-05-05 17:38 | 33.40293 | 29.09863 | 35089 ft | 503 kts | 140° |
| 2026-05-05 17:39 | 33.35172 | 29.15571 | 35089 ft | 503 kts | 140° |
| 2026-05-05 17:39 | 33.30046 | 29.21274 | 35090 ft | 503 kts | 140° |
| 2026-05-05 17:40 | 33.24926 | 29.26959 | 35091 ft | 504 kts | 140° |
| 2026-05-05 17:40 | 33.19788 | 29.32656 | 35092 ft | 503 kts | 141° |
| 2026-05-05 17:41 | 33.14662 | 29.38327 | 35092 ft | 503 kts | 141° |
| 2026-05-05 17:41 | 33.09523 | 29.44003 | 35093 ft | 503 kts | 141° |
| 2026-05-05 17:42 | 33.04386 | 29.49671 | 35094 ft | 503 kts | 141° |
| 2026-05-05 17:42 | 32.99238 | 29.55337 | 35094 ft | 503 kts | 141° |
| 2026-05-05 17:43 | 32.94099 | 29.60987 | 35095 ft | 503 kts | 141° |
| 2026-05-05 17:43 | 32.88943 | 29.66642 | 35096 ft | 503 kts | 141° |
| 2026-05-05 17:44 | 32.83796 | 29.72281 | 35096 ft | 503 kts | 141° |
| 2026-05-05 17:44 | 32.78640 | 29.77920 | 35097 ft | 503 kts | 142° |
| 2026-05-05 17:45 | 32.73476 | 29.83557 | 35097 ft | 504 kts | 142° |
| 2026-05-05 17:45 | 32.68313 | 29.89185 | 35098 ft | 504 kts | 142° |
| 2026-05-05 17:46 | 32.63142 | 29.94809 | 35097 ft | 505 kts | 142° |
| 2026-05-05 17:46 | 32.59718 | 29.98531 | 35086 ft | 504 kts | 142° |
| 2026-05-05 17:47 | 32.47102 | 30.12192 | 35086 ft | 504 kts | 143° |
| 2026-05-05 17:48 | 32.41908 | 30.17760 | 35089 ft | 503 kts | 143° |
| 2026-05-05 17:48 | 32.36713 | 30.23328 | 35091 ft | 505 kts | 142° |
| 2026-05-05 17:49 | 32.31671 | 30.29070 | 35092 ft | 506 kts | 141° |
| 2026-05-05 17:49 | 32.26613 | 30.34848 | 35093 ft | 506 kts | 141° |
| 2026-05-05 17:50 | 32.21544 | 30.40603 | 35093 ft | 505 kts | 141° |
| 2026-05-05 17:50 | 32.16460 | 30.46345 | 35094 ft | 505 kts | 141° |
| 2026-05-05 17:51 | 32.11380 | 30.52062 | 35094 ft | 504 kts | 142° |
| 2026-05-05 17:51 | 32.06298 | 30.57755 | 35095 ft | 504 kts | 142° |
| 2026-05-05 17:52 | 32.01210 | 30.63439 | 35095 ft | 504 kts | 142° |
| 2026-05-05 17:52 | 31.96150 | 30.69084 | 35095 ft | 503 kts | 142° |
| 2026-05-05 17:53 | 31.91040 | 30.74766 | 35095 ft | 503 kts | 142° |
| 2026-05-05 17:53 | 31.85955 | 30.80408 | 35095 ft | 502 kts | 142° |
| 2026-05-05 17:54 | 31.80878 | 30.86025 | 35093 ft | 501 kts | 142° |
| 2026-05-05 17:54 | 31.76663 | 30.90682 | 35093 ft | 501 kts | 142° |
| 2026-05-05 17:55 | 31.71589 | 30.96281 | 35092 ft | 500 kts | 143° |
| 2026-05-05 17:55 | 31.66574 | 31.01981 | 35091 ft | 504 kts | 137° |
| 2026-05-05 17:56 | 31.61606 | 31.07693 | 35090 ft | 493 kts | 150° |
| 2026-05-05 17:56 | 31.55691 | 31.11356 | 35072 ft | 473 kts | 169° |
| 2026-05-05 17:56 | 31.52529 | 31.12273 | 34799 ft | 463 kts | 178° |
| 2026-05-05 17:57 | 31.49353 | 31.12910 | 33988 ft | 461 kts | 179° |
| 2026-05-05 17:57 | 31.46248 | 31.13503 | 33364 ft | 456 kts | 179° |
| 2026-05-05 17:57 | 31.43094 | 31.14098 | 32712 ft | 451 kts | 179° |
| 2026-05-05 17:57 | 31.40001 | 31.14679 | 32064 ft | 448 kts | 180° |
| 2026-05-05 17:58 | 31.36937 | 31.15253 | 31446 ft | 444 kts | 179° |
| 2026-05-05 17:58 | 31.33906 | 31.15820 | 30836 ft | 440 kts | 180° |
| 2026-05-05 17:58 | 31.30896 | 31.16384 | 30216 ft | 437 kts | 180° |
| 2026-05-05 17:58 | 31.27897 | 31.16944 | 29621 ft | 433 kts | 179° |
| 2026-05-05 17:59 | 31.24927 | 31.17495 | 28990 ft | 431 kts | 179° |
| 2026-05-05 17:59 | 31.21983 | 31.18043 | 28395 ft | 427 kts | 179° |
| 2026-05-05 17:59 | 31.19059 | 31.18587 | 27799 ft | 424 kts | 179° |
| 2026-05-05 17:59 | 31.16153 | 31.19128 | 27182 ft | 422 kts | 179° |
| 2026-05-05 18:00 | 31.13272 | 31.19665 | 26617 ft | 418 kts | 179° |
| 2026-05-05 18:00 | 31.10409 | 31.20197 | 26028 ft | 415 kts | 179° |
| 2026-05-05 18:00 | 31.07567 | 31.20726 | 25450 ft | 411 kts | 179° |
| 2026-05-05 18:00 | 31.04766 | 31.21249 | 24887 ft | 408 kts | 179° |
| 2026-05-05 18:01 | 31.01948 | 31.21773 | 24298 ft | 406 kts | 179° |
| 2026-05-05 18:01 | 30.99168 | 31.22290 | 23721 ft | 404 kts | 179° |
| 2026-05-05 18:01 | 30.96407 | 31.22801 | 23158 ft | 401 kts | 178° |
| 2026-05-05 18:01 | 30.93655 | 31.23311 | 22591 ft | 399 kts | 178° |
| 2026-05-05 18:02 | 30.90924 | 31.23817 | 22045 ft | 396 kts | 178° |
| 2026-05-05 18:02 | 30.88207 | 31.24319 | 21471 ft | 395 kts | 178° |
| 2026-05-05 18:02 | 30.85502 | 31.24821 | 20924 ft | 392 kts | 178° |
| 2026-05-05 18:02 | 30.82815 | 31.25319 | 20377 ft | 390 kts | 178° |
| 2026-05-05 18:03 | 30.80104 | 31.25821 | 19817 ft | 388 kts | 178° |
| 2026-05-05 18:03 | 30.77438 | 31.26315 | 19292 ft | 385 kts | 177° |
| 2026-05-05 18:03 | 30.74800 | 31.26802 | 18767 ft | 383 kts | 177° |
| 2026-05-05 18:03 | 30.72188 | 31.27284 | 18267 ft | 379 kts | 177° |
| 2026-05-05 18:04 | 30.69583 | 31.27765 | 17741 ft | 377 kts | 177° |
| 2026-05-05 18:04 | 30.67006 | 31.28240 | 17232 ft | 374 kts | 176° |
| 2026-05-05 18:04 | 30.64441 | 31.28713 | 16722 ft | 372 kts | 176° |
| 2026-05-05 18:04 | 30.61894 | 31.29181 | 16197 ft | 370 kts | 176° |
| 2026-05-05 18:05 | 30.59364 | 31.29647 | 15728 ft | 366 kts | 176° |
| 2026-05-05 18:05 | 30.56848 | 31.30110 | 15217 ft | 364 kts | 175° |
| 2026-05-05 18:05 | 30.54359 | 31.30568 | 14718 ft | 361 kts | 175° |
| 2026-05-05 18:05 | 30.51892 | 31.31022 | 14230 ft | 358 kts | 175° |
| 2026-05-05 18:06 | 30.49431 | 31.31475 | 13721 ft | 356 kts | 175° |
| 2026-05-05 18:06 | 30.47813 | 31.31772 | 13356 ft | 355 kts | 175° |
| 2026-05-05 18:06 | 30.44561 | 31.32368 | 12653 ft | 352 kts | 174° |
| 2026-05-05 18:06 | 30.42181 | 31.32807 | 12151 ft | 340 kts | 174° |
| 2026-05-05 18:07 | 30.39877 | 31.33232 | 11649 ft | 331 kts | 174° |
| 2026-05-05 18:07 | 30.37628 | 31.33645 | 11148 ft | 325 kts | 174° |
| 2026-05-05 18:07 | 30.35384 | 31.34054 | 10646 ft | 325 kts | 174° |
| 2026-05-05 18:07 | 30.33157 | 31.34461 | 10148 ft | 326 kts | 173° |
| 2026-05-05 18:08 | 30.32164 | 31.34643 | 9926 ft | 326 kts | 173° |
| 2026-05-05 18:08 | 30.31951 | 31.34682 | 9879 ft | 326 kts | 173° |
| 2026-05-05 18:10 | 30.30446 | 31.34956 | 9542 ft | 325 kts | 174° |
| 2026-05-05 18:10 | 30.28230 | 31.34852 | 9170 ft | 310 kts | 197° |
| 2026-05-05 18:11 | 30.26253 | 31.34064 | 8871 ft | 295 kts | 204° |
| 2026-05-05 18:11 | 30.24358 | 31.33205 | 8362 ft | 291 kts | 204° |
| 2026-05-05 18:11 | 30.22471 | 31.32371 | 7940 ft | 284 kts | 203° |
| 2026-05-05 18:11 | 30.20680 | 31.31603 | 7834 ft | 269 kts | 203° |
| 2026-05-05 18:12 | 30.18944 | 31.30868 | 7568 ft | 262 kts | 203° |
| 2026-05-05 18:12 | 30.17242 | 31.30161 | 7119 ft | 259 kts | 202° |
| 2026-05-05 18:12 | 30.15561 | 31.29477 | 6867 ft | 255 kts | 202° |
| 2026-05-05 18:12 | 30.13884 | 31.28800 | 6621 ft | 256 kts | 202° |
| 2026-05-05 18:13 | 30.12203 | 31.28131 | 6267 ft | 255 kts | 202° |
| 2026-05-05 18:13 | 30.10555 | 31.27483 | 6039 ft | 245 kts | 202° |
| 2026-05-05 18:13 | 30.08991 | 31.26814 | 5744 ft | 237 kts | 203° |
| 2026-05-05 18:13 | 30.07431 | 31.26180 | 5338 ft | 238 kts | 202° |
| 2026-05-05 18:14 | 30.05862 | 31.25551 | 4839 ft | 240 kts | 202° |
| 2026-05-05 18:14 | 30.04286 | 31.24921 | 4363 ft | 240 kts | 202° |
| 2026-05-05 18:14 | 30.02720 | 31.24288 | 4009 ft | 235 kts | 203° |
| 2026-05-05 18:14 | 30.01213 | 31.23664 | 3738 ft | 226 kts | 203° |
| 2026-05-05 18:15 | 29.99712 | 31.23298 | 3500 ft | 217 kts | 182° |
| 2026-05-05 18:15 | 29.98330 | 31.23872 | 3267 ft | 214 kts | 146° |
| 2026-05-05 18:15 | 29.97483 | 31.25186 | 3035 ft | 205 kts | 109° |
| 2026-05-05 18:15 | 29.97443 | 31.26785 | 2816 ft | 196 kts | 71° |
| 2026-05-05 18:16 | 29.98188 | 31.27975 | 2720 ft | 182 kts | 32° |
| 2026-05-05 18:16 | 29.99271 | 31.28724 | 2731 ft | 184 kts | 30° |
| 2026-05-05 18:16 | 30.00238 | 31.29650 | 2689 ft | 175 kts | 37° |
| 2026-05-05 18:16 | 30.01092 | 31.30596 | 2694 ft | 169 kts | 39° |
| 2026-05-05 18:17 | 30.01903 | 31.31580 | 2679 ft | 167 kts | 41° |
| 2026-05-05 18:17 | 30.02680 | 31.32569 | 2595 ft | 170 kts | 42° |
| 2026-05-05 18:17 | 30.03458 | 31.33590 | 2335 ft | 164 kts | 43° |
| 2026-05-05 18:17 | 30.04199 | 31.34568 | 2143 ft | 164 kts | 43° |
| 2026-05-05 18:18 | 30.04925 | 31.35534 | 1878 ft | 153 kts | 43° |
| 2026-05-05 18:18 | 30.05616 | 31.36447 | 1707 ft | 150 kts | 44° |
| 2026-05-05 18:18 | 30.06306 | 31.37378 | 1499 ft | 150 kts | 45° |
| 2026-05-05 18:18 | 30.06974 | 31.38303 | 1273 ft | 150 kts | 45° |
| 2026-05-05 18:19 | 30.07654 | 31.39196 | 1067 ft | 149 kts | 43° |
| 2026-05-05 18:19 | 30.08244 | 31.39919 | 924 ft | 153 kts | 43° |
| 2026-05-05 18:19 | 30.08937 | 31.40824 | 699 ft | 154 kts | 45° |
| 2026-05-05 18:19 | 30.09607 | 31.41781 | 512 ft | 150 kts | 47° |
| 2026-05-05 18:20 | 30.10229 | 31.42697 | 482 ft | 132 kts | 49° |
| 2026-05-05 18:20 | 30.10399 | 31.42936 | 482 ft | 113 kts | 47° |
| 2026-05-05 18:20 | 30.10817 | 31.43430 | 480 ft | 60 kts | 36° |
| 2026-05-05 18:20 | 30.11087 | 31.43708 | 397 ft | 45 kts | 51° |
| 2026-05-05 18:21 | 30.11247 | 31.43922 | 397 ft | 28 kts | 39° |
| 2026-05-05 18:21 | 30.11418 | 31.44026 | 397 ft | 20 kts | 25° |
| 2026-05-05 18:21 | 30.11544 | 31.44090 | 397 ft | 20 kts | 24° |
| 2026-05-05 18:21 | 30.11656 | 31.44073 | 397 ft | 17 kts | 286° |
| 2026-05-05 18:22 | 30.11600 | 31.43960 | 397 ft | 17 kts | 229° |
| 2026-05-05 18:22 | 30.11523 | 31.43853 | 397 ft | 18 kts | 232° |
| 2026-05-05 18:22 | 30.11442 | 31.43742 | 397 ft | 18 kts | 230° |
| 2026-05-05 18:22 | 30.11359 | 31.43629 | 397 ft | 19 kts | 229° |
| 2026-05-05 18:23 | 30.11279 | 31.43523 | 397 ft | 20 kts | 230° |
| 2026-05-05 18:23 | 30.11251 | 31.43418 | 397 ft | 14 kts | 311° |
| 2026-05-05 18:23 | 30.11284 | 31.43383 | 397 ft | 16 kts | 321° |
| 2026-05-05 18:23 | 30.11381 | 31.43289 | 397 ft | 20 kts | 319° |
| 2026-05-05 18:24 | 30.11504 | 31.43166 | 397 ft | 27 kts | 320° |
| 2026-05-05 18:24 | 30.11652 | 31.43021 | 397 ft | 27 kts | 319° |
| 2026-05-05 18:24 | 30.11779 | 31.42895 | 397 ft | 24 kts | 319° |
| 2026-05-05 18:24 | 30.11915 | 31.42761 | 397 ft | 28 kts | 320° |
| 2026-05-05 18:25 | 30.12073 | 31.42607 | 397 ft | 32 kts | 319° |
| 2026-05-05 18:25 | 30.12128 | 31.42551 | 397 ft | 33 kts | 319° |
| 2026-05-05 18:25 | 30.12196 | 31.42374 | 397 ft | 18 kts | 224° |
| 2026-05-05 18:25 | 30.12095 | 31.42251 | 397 ft | 23 kts | 228° |
| 2026-05-05 18:26 | 30.11984 | 31.42104 | 397 ft | 25 kts | 228° |
| 2026-05-05 18:26 | 30.11866 | 31.41943 | 397 ft | 29 kts | 231° |
| 2026-05-05 18:26 | 30.11726 | 31.41757 | 397 ft | 31 kts | 227° |
| 2026-05-05 18:26 | 30.11582 | 31.41564 | 397 ft | 32 kts | 230° |
| 2026-05-05 18:27 | 30.11434 | 31.41367 | 397 ft | 33 kts | 229° |
| 2026-05-05 18:27 | 30.11286 | 31.41169 | 397 ft | 33 kts | 231° |
| 2026-05-05 18:27 | 30.11140 | 31.40970 | 397 ft | 33 kts | 228° |
| 2026-05-05 18:27 | 30.10988 | 31.40775 | 397 ft | 33 kts | 228° |
| 2026-05-05 18:28 | 30.10708 | 31.40411 | 397 ft | 23 kts | 230° |
| 2026-05-05 18:28 | 30.10691 | 31.40322 | 397 ft | 12 kts | 310° |
| 2026-05-05 18:28 | 30.10691 | 31.40234 | 397 ft | 14 kts | 229° |
| 2026-05-05 18:29 | 30.10615 | 31.40132 | 397 ft | 21 kts | 229° |
| 2026-05-05 18:29 | 30.10509 | 31.39993 | 397 ft | 22 kts | 229° |
| 2026-05-05 18:29 | 30.10484 | 31.39929 | 397 ft | 6 kts | 283° |
| 2026-05-05 18:29 | 30.10519 | 31.39858 | 397 ft | 10 kts | 335° |
| 2026-05-05 18:30 | 30.10578 | 31.39846 | 397 ft | 9 kts | 343° |
| 2026-05-05 18:30 | 30.10688 | 31.39810 | 397 ft | 21 kts | 344° |
| 2026-05-05 18:30 | 30.10828 | 31.39765 | 397 ft | 5 kts | 345° |
| 2026-05-05 18:30 | 30.10829 | 31.39764 | 397 ft | 0 kts | 345° |
| 2026-05-05 18:31 | 30.10866 | 31.39753 | 397 ft | 18 kts | 345° |
| 2026-05-05 18:31 | 30.10917 | 31.39742 | 397 ft | 2 kts | 32° |
| 2026-05-05 18:31 | 30.10961 | 31.39746 | 397 ft | 12 kts | 3° |
| 2026-05-05 18:32 | 30.10985 | 31.39764 | 397 ft | 6 kts | 76° |
| 2026-05-05 18:32 | 30.10972 | 31.39811 | 397 ft | 0 kts | 69° |
| 2026-05-05 18:32 | 30.10979 | 31.39827 | 397 ft | 1 kts | 69° |
| 2026-05-05 18:32 | 30.10980 | 31.39833 | 397 ft | 0 kts | 70° |
| 2026-05-05 18:33 | 30.10979 | 31.39829 | 397 ft | 1 kts | 70° |
| 2026-05-05 18:33 | 30.10979 | 31.39830 | 397 ft | 0 kts | 70° |